createdAt,value
2018-02-03T00:00:36.480Z,998.11
2018-02-03T00:01:36.491Z,998.11
2018-02-03T00:02:36.508Z,998.07
2018-02-03T00:03:36.525Z,998.09
2018-02-03T00:04:36.542Z,998.05
2018-02-03T00:06:36.566Z,998.03
2018-02-03T00:07:36.591Z,998.08
2018-02-03T00:08:36.603Z,998.07
2018-02-03T00:09:36.618Z,998.09
2018-02-03T00:10:36.628Z,998.06
2018-02-03T00:11:36.646Z,998.07
2018-02-03T00:12:36.665Z,998.04
2018-02-03T00:13:36.679Z,998.07
2018-02-03T00:14:36.695Z,998.06
2018-02-03T00:15:36.712Z,998.06
2018-02-03T00:16:36.724Z,998.06
2018-02-03T00:17:36.735Z,998.01
2018-02-03T00:18:36.755Z,998.02
2018-02-03T00:19:36.766Z,998
2018-02-03T00:20:36.779Z,998
2018-02-03T00:22:36.814Z,998
2018-02-03T00:23:36.835Z,998.05
2018-02-03T00:24:36.847Z,998.04
2018-02-03T00:25:36.864Z,998.04
2018-02-03T00:26:36.879Z,998.04
2018-02-03T00:27:36.889Z,998.06
2018-02-03T00:28:36.913Z,998.04
2018-02-03T00:29:36.924Z,998
2018-02-03T00:30:36.937Z,997.95
2018-02-03T00:31:36.951Z,997.93
2018-02-03T00:32:36.969Z,997.89
2018-02-03T00:33:36.985Z,997.9
2018-02-03T00:34:36.992Z,997.9
2018-02-03T00:35:37.014Z,997.92
2018-02-03T00:36:37.030Z,997.94
2018-02-03T00:38:37.055Z,997.9
2018-02-03T00:39:37.068Z,997.9
2018-02-03T00:40:37.086Z,997.95
2018-02-03T00:41:37.107Z,997.97
2018-02-03T00:42:37.117Z,997.99
2018-02-03T00:43:37.138Z,997.99
2018-02-03T00:44:37.148Z,998.01
2018-02-03T00:45:37.161Z,998.01
2018-02-03T00:46:37.182Z,998
2018-02-03T00:47:37.195Z,998
2018-02-03T00:48:37.211Z,998.06
2018-02-03T00:49:37.226Z,998.02
2018-02-03T00:50:37.239Z,998.07
2018-02-03T00:51:37.252Z,998.1
2018-02-03T00:52:37.272Z,998.07
2018-02-03T00:54:37.301Z,998.06
2018-02-03T00:55:37.314Z,998.05
2018-02-03T00:56:37.336Z,998.06
2018-02-03T00:57:37.353Z,998.03
2018-02-03T00:58:37.369Z,998.01
2018-02-03T00:59:37.376Z,998.09
2018-02-03T01:00:37.395Z,998.07
2018-02-03T01:01:37.410Z,998.09
2018-02-03T01:02:37.430Z,998.08
2018-02-03T01:03:37.445Z,998.11
2018-02-03T01:04:37.456Z,998.11
2018-02-03T01:05:37.476Z,998.06
2018-02-03T01:06:37.487Z,998.06
2018-02-03T01:07:37.501Z,998.06
2018-02-03T01:09:37.533Z,998.09
2018-02-03T01:10:37.546Z,998.06
2018-02-03T01:11:37.561Z,998.08
2018-02-03T01:12:37.576Z,998.09
2018-02-03T01:13:37.588Z,998.05
2018-02-03T01:14:37.613Z,998.1
2018-02-03T01:15:37.619Z,998.09
2018-02-03T01:16:37.637Z,998.05
2018-02-03T01:17:37.652Z,998.02
2018-02-03T01:18:37.667Z,997.98
2018-02-03T01:19:37.688Z,998.03
2018-02-03T01:20:37.699Z,997.98
2018-02-03T01:21:37.719Z,997.97
2018-02-03T01:22:37.731Z,997.97
2018-02-03T01:23:37.742Z,997.96
2018-02-03T01:24:37.764Z,998.01
2018-02-03T01:25:37.777Z,998
2018-02-03T01:26:37.789Z,998.03
2018-02-03T01:27:37.801Z,998.01
2018-02-03T01:28:37.815Z,998.04
2018-02-03T01:29:37.836Z,998.02
2018-02-03T01:30:37.853Z,998
2018-02-03T01:31:37.862Z,997.99
2018-02-03T01:32:37.878Z,997.99
2018-02-03T01:33:37.895Z,997.95
2018-02-03T01:34:37.911Z,997.99
2018-02-03T01:35:37.929Z,997.99
2018-02-03T01:36:37.944Z,998
2018-02-03T01:37:37.957Z,997.99
2018-02-03T01:38:37.974Z,997.98
2018-02-03T01:39:37.982Z,997.97
2018-02-03T01:41:38.018Z,997.98
2018-02-03T01:42:38.033Z,997.95
2018-02-03T01:43:38.047Z,997.95
2018-02-03T01:44:38.064Z,997.96
2018-02-03T01:45:38.073Z,997.96
2018-02-03T01:46:38.093Z,997.95
2018-02-03T01:47:38.104Z,997.92
2018-02-03T01:48:38.126Z,997.91
2018-02-03T01:49:38.140Z,997.85
2018-02-03T01:50:38.151Z,997.88
2018-02-03T01:51:38.169Z,997.86
2018-02-03T01:52:38.182Z,997.87
2018-02-03T01:53:38.194Z,997.85
2018-02-03T01:54:38.212Z,997.87
2018-02-03T01:55:38.227Z,997.85
2018-02-03T01:57:38.262Z,997.82
2018-02-03T01:58:38.277Z,997.89
2018-02-03T01:59:38.290Z,997.85
2018-02-03T02:00:38.306Z,997.87
2018-02-03T02:01:38.319Z,997.84
2018-02-03T02:02:38.337Z,997.86
2018-02-03T02:03:38.349Z,997.82
2018-02-03T02:04:38.369Z,997.87
2018-02-03T02:05:38.384Z,997.86
2018-02-03T02:06:38.398Z,997.86
2018-02-03T02:07:38.412Z,997.87
2018-02-03T02:08:38.428Z,997.89
2018-02-03T02:09:38.441Z,997.86
2018-02-03T02:10:38.463Z,997.83
2018-02-03T02:11:38.471Z,997.85
2018-02-03T02:13:38.501Z,997.8
2018-02-03T02:14:38.513Z,997.76
2018-02-03T02:15:38.532Z,997.82
2018-02-03T02:16:38.547Z,997.8
2018-02-03T02:17:38.562Z,997.82
2018-02-03T02:18:38.577Z,997.79
2018-02-03T02:19:38.593Z,997.8
2018-02-03T02:20:38.613Z,997.78
2018-02-03T02:21:38.620Z,997.74
2018-02-03T02:22:38.641Z,997.75
2018-02-03T02:23:38.650Z,997.74
2018-02-03T02:24:38.673Z,997.75
2018-02-03T02:25:38.688Z,997.76
2018-02-03T02:26:38.698Z,997.75
2018-02-03T02:27:38.713Z,997.76
2018-02-03T02:29:38.745Z,997.73
2018-02-03T02:30:38.766Z,997.77
2018-02-03T02:31:38.774Z,997.76
2018-02-03T02:32:38.787Z,997.72
2018-02-03T02:33:38.801Z,997.79
2018-02-03T02:34:38.820Z,997.73
2018-02-03T02:35:38.836Z,997.75
2018-02-03T02:36:38.850Z,997.74
2018-02-03T02:37:38.869Z,997.71
2018-02-03T02:38:38.886Z,997.75
2018-02-03T02:39:38.900Z,997.75
2018-02-03T02:40:38.915Z,997.73
2018-02-03T02:41:38.927Z,997.72
2018-02-03T02:42:38.950Z,997.76
2018-02-03T02:44:38.976Z,997.73
2018-02-03T02:45:38.989Z,997.72
2018-02-03T02:46:39.002Z,997.77
2018-02-03T02:47:39.017Z,997.78
2018-02-03T02:48:39.041Z,997.77
2018-02-03T02:49:39.051Z,997.76
2018-02-03T02:50:39.070Z,997.72
2018-02-03T02:51:39.081Z,997.73
2018-02-03T02:52:39.096Z,997.71
2018-02-03T02:53:39.112Z,997.7
2018-02-03T02:54:39.125Z,997.73
2018-02-03T02:55:39.142Z,997.73
2018-02-03T02:56:39.159Z,997.69
2018-02-03T02:57:39.171Z,997.67
2018-02-03T02:58:39.183Z,997.71
2018-02-03T02:59:39.204Z,997.7
2018-02-03T03:00:39.224Z,997.72
2018-02-03T03:01:39.237Z,997.66
2018-02-03T03:02:39.250Z,997.63
2018-02-03T03:03:39.264Z,997.62
2018-02-03T03:04:39.285Z,997.66
2018-02-03T03:05:39.290Z,997.63
2018-02-03T03:06:39.312Z,997.63
2018-02-03T03:07:39.324Z,997.59
2018-02-03T03:08:39.338Z,997.58
2018-02-03T03:09:39.360Z,997.58
2018-02-03T03:10:39.372Z,997.59
2018-02-03T03:11:39.386Z,997.57
2018-02-03T03:12:39.404Z,997.55
2018-02-03T03:13:39.419Z,997.57
2018-02-03T03:14:39.431Z,997.55
2018-02-03T03:16:39.462Z,997.59
2018-02-03T03:17:39.479Z,997.59
2018-02-03T03:18:39.492Z,997.57
2018-02-03T03:19:39.506Z,997.61
2018-02-03T03:20:39.526Z,997.59
2018-02-03T03:21:39.538Z,997.62
2018-02-03T03:22:39.554Z,997.6
2018-02-03T03:23:39.566Z,997.6
2018-02-03T03:24:39.586Z,997.6
2018-02-03T03:25:39.600Z,997.63
2018-02-03T03:26:39.620Z,997.59
2018-02-03T03:27:39.634Z,997.62
2018-02-03T03:28:39.651Z,997.58
2018-02-03T03:29:39.660Z,997.6
2018-02-03T03:30:39.680Z,997.64
2018-02-03T03:32:39.713Z,997.59
2018-02-03T03:33:39.725Z,997.6
2018-02-03T03:34:39.743Z,997.62
2018-02-03T03:35:39.752Z,997.62
2018-02-03T03:36:39.768Z,997.61
2018-02-03T03:37:39.790Z,997.61
2018-02-03T03:38:39.796Z,997.59
2018-02-03T03:39:39.821Z,997.61
2018-02-03T03:40:39.828Z,997.65
2018-02-03T03:41:39.848Z,997.61
2018-02-03T03:42:39.865Z,997.66
2018-02-03T03:43:39.881Z,997.65
2018-02-03T03:44:39.887Z,997.67
2018-02-03T03:45:39.909Z,997.65
2018-02-03T03:46:39.920Z,997.64
2018-02-03T03:48:39.950Z,997.62
2018-02-03T03:49:39.967Z,997.61
2018-02-03T03:50:39.983Z,997.63
2018-02-03T03:51:40.008Z,997.63
2018-02-03T03:52:40.015Z,997.64
2018-02-03T03:53:40.031Z,997.66
2018-02-03T03:54:40.049Z,997.61
2018-02-03T03:55:40.066Z,997.62
2018-02-03T03:56:40.076Z,997.58
2018-02-03T03:57:40.089Z,997.64
2018-02-03T03:58:40.108Z,997.61
2018-02-03T03:59:40.127Z,997.6
2018-02-03T04:00:40.138Z,997.62
2018-02-03T04:01:40.154Z,997.61
2018-02-03T04:02:40.164Z,997.63
2018-02-03T04:04:40.201Z,997.59
2018-02-03T04:05:40.218Z,997.58
2018-02-03T04:06:40.226Z,997.56
2018-02-03T04:07:40.243Z,997.6
2018-02-03T04:08:40.260Z,997.61
2018-02-03T04:09:40.277Z,997.55
2018-02-03T04:10:40.292Z,997.61
2018-02-03T04:11:40.303Z,997.58
2018-02-03T04:12:40.328Z,997.59
2018-02-03T04:13:40.338Z,997.58
2018-02-03T04:14:40.347Z,997.58
2018-02-03T04:15:40.366Z,997.61
2018-02-03T04:16:40.385Z,997.61
2018-02-03T04:17:40.403Z,997.63
2018-02-03T04:19:40.431Z,997.62
2018-02-03T04:20:40.450Z,997.57
2018-02-03T04:21:40.458Z,997.57
2018-02-03T04:22:40.474Z,997.59
2018-02-03T04:23:40.489Z,997.59
2018-02-03T04:24:40.505Z,997.59
2018-02-03T04:25:40.527Z,997.58
2018-02-03T04:26:40.538Z,997.62
2018-02-03T04:27:40.546Z,997.58
2018-02-03T04:28:40.566Z,997.54
2018-02-03T04:29:40.578Z,997.56
2018-02-03T04:30:40.601Z,997.58
2018-02-03T04:31:40.614Z,997.58
2018-02-03T04:32:40.633Z,997.6
2018-02-03T04:33:40.646Z,997.6
2018-02-03T04:34:40.663Z,997.59
2018-02-03T04:35:40.672Z,997.6
2018-02-03T04:36:40.689Z,997.57
2018-02-03T04:37:40.802Z,997.6
2018-02-03T04:38:40.719Z,997.58
2018-02-03T04:39:40.736Z,997.55
2018-02-03T04:40:40.746Z,997.56
2018-02-03T04:41:40.772Z,997.54
2018-02-03T04:42:40.777Z,997.52
2018-02-03T04:43:40.800Z,997.56
2018-02-03T04:44:40.807Z,997.54
2018-02-03T04:45:40.823Z,997.52
2018-02-03T04:46:40.844Z,997.54
2018-02-03T04:47:40.861Z,997.53
2018-02-03T04:48:40.871Z,997.49
2018-02-03T04:49:40.887Z,997.54
2018-02-03T04:51:40.922Z,997.51
2018-02-03T04:52:40.932Z,997.5
2018-02-03T04:53:40.944Z,997.5
2018-02-03T04:54:40.960Z,997.54
2018-02-03T04:55:40.980Z,997.49
2018-02-03T04:56:41.000Z,997.53
2018-02-03T04:57:41.010Z,997.51
2018-02-03T04:58:41.031Z,997.54
2018-02-03T04:59:41.045Z,997.51
2018-02-03T05:00:41.058Z,997.57
2018-02-03T05:01:41.077Z,997.57
2018-02-03T05:02:41.088Z,997.58
2018-02-03T05:03:41.102Z,997.58
2018-02-03T05:04:41.114Z,997.59
2018-02-03T05:05:41.135Z,997.6
2018-02-03T05:07:41.166Z,997.61
2018-02-03T05:08:41.179Z,997.62
2018-02-03T05:09:41.191Z,997.57
2018-02-03T05:10:41.206Z,997.58
2018-02-03T05:11:41.226Z,997.58
2018-02-03T05:12:41.247Z,997.59
2018-02-03T05:13:41.253Z,997.54
2018-02-03T05:14:41.274Z,997.56
2018-02-03T05:15:41.287Z,997.61
2018-02-03T05:16:41.303Z,997.54
2018-02-03T05:17:41.320Z,997.52
2018-02-03T05:18:41.329Z,997.52
2018-02-03T05:19:41.344Z,997.58
2018-02-03T05:20:41.360Z,997.57
2018-02-03T05:21:41.383Z,997.55
2018-02-03T05:23:41.414Z,997.59
2018-02-03T05:24:41.429Z,997.6
2018-02-03T05:25:41.443Z,997.55
2018-02-03T05:26:41.513Z,997.59
2018-02-03T05:27:41.474Z,997.58
2018-02-03T05:28:41.489Z,997.62
2018-02-03T05:29:41.499Z,997.59
2018-02-03T05:30:41.518Z,997.64
2018-02-03T05:31:41.528Z,997.67
2018-02-03T05:32:41.552Z,997.66
2018-02-03T05:33:41.570Z,997.67
2018-02-03T05:34:41.581Z,997.62
2018-02-03T05:35:41.599Z,997.63
2018-02-03T05:36:41.610Z,997.67
2018-02-03T05:37:41.622Z,997.65
2018-02-03T05:39:41.657Z,997.7
2018-02-03T05:40:41.667Z,997.7
2018-02-03T05:41:41.684Z,997.7
2018-02-03T05:42:41.705Z,997.73
2018-02-03T05:43:41.717Z,997.71
2018-02-03T05:44:41.737Z,997.72
2018-02-03T05:45:41.753Z,997.72
2018-02-03T05:46:41.762Z,997.75
2018-02-03T05:47:41.784Z,997.78
2018-02-03T05:48:41.797Z,997.78
2018-02-03T05:49:41.810Z,997.79
2018-02-03T05:50:41.822Z,997.78
2018-02-03T05:51:41.840Z,997.72
2018-02-03T05:52:41.856Z,997.76
2018-02-03T05:54:41.888Z,997.78
2018-02-03T05:55:41.900Z,997.79
2018-02-03T05:56:41.919Z,997.78
2018-02-03T05:57:41.938Z,997.82
2018-02-03T05:58:41.946Z,997.78
2018-02-03T05:59:41.959Z,997.79
2018-02-03T06:00:41.977Z,997.79
2018-02-03T06:01:42.000Z,997.83
2018-02-03T06:02:42.008Z,997.82
2018-02-03T06:03:42.025Z,997.83
2018-02-03T06:04:42.036Z,997.86
2018-02-03T06:05:42.054Z,997.88
2018-02-03T06:06:42.064Z,997.84
2018-02-03T06:07:42.089Z,997.84
2018-02-03T06:08:42.103Z,997.85
2018-02-03T06:09:42.120Z,997.83
2018-02-03T06:10:42.130Z,997.85
2018-02-03T06:11:42.146Z,997.87
2018-02-03T06:12:42.167Z,997.86
2018-02-03T06:13:42.182Z,997.88
2018-02-03T06:14:42.191Z,997.88
2018-02-03T06:15:42.209Z,997.91
2018-02-03T06:16:42.225Z,997.89
2018-02-03T06:17:42.233Z,997.91
2018-02-03T06:18:42.249Z,997.95
2018-02-03T06:19:42.267Z,997.96
2018-02-03T06:20:42.290Z,997.95
2018-02-03T06:21:42.305Z,997.99
2018-02-03T06:22:42.315Z,998
2018-02-03T06:23:42.326Z,997.97
2018-02-03T06:24:42.351Z,997.96
2018-02-03T06:26:42.378Z,998.03
2018-02-03T06:27:42.397Z,998.04
2018-02-03T06:28:42.409Z,998.07
2018-02-03T06:29:42.427Z,998.02
2018-02-03T06:30:42.438Z,998.06
2018-02-03T06:31:42.458Z,998.03
2018-02-03T06:32:42.470Z,998.06
2018-02-03T06:33:42.483Z,998.08
2018-02-03T06:34:42.500Z,998.08
2018-02-03T06:35:42.514Z,998.09
2018-02-03T06:36:42.530Z,998.06
2018-02-03T06:37:42.544Z,998.09
2018-02-03T06:38:42.566Z,998.05
2018-02-03T06:39:42.578Z,998.1
2018-02-03T06:40:42.587Z,998.16
2018-02-03T06:42:42.627Z,998.15
2018-02-03T06:43:42.640Z,998.14
2018-02-03T06:44:42.652Z,998.17
2018-02-03T06:45:42.666Z,998.19
2018-02-03T06:46:42.680Z,998.19
2018-02-03T06:47:42.699Z,998.2
2018-02-03T06:48:42.721Z,998.19
2018-02-03T06:49:42.726Z,998.2
2018-02-03T06:50:42.746Z,998.19
2018-02-03T06:51:42.763Z,998.17
2018-02-03T06:52:42.780Z,998.21
2018-02-03T06:53:42.796Z,998.23
2018-02-03T06:54:42.810Z,998.27
2018-02-03T06:55:42.819Z,998.26
2018-02-03T06:56:42.837Z,998.27
2018-02-03T06:58:42.868Z,998.27
2018-02-03T06:59:42.886Z,998.23
2018-02-03T07:00:42.900Z,998.25
2018-02-03T07:01:42.916Z,998.32
2018-02-03T07:02:42.932Z,998.29
2018-02-03T07:03:42.946Z,998.27
2018-02-03T07:04:42.960Z,998.3
2018-02-03T07:05:42.978Z,998.31
2018-02-03T07:06:42.992Z,998.32
2018-02-03T07:07:43.010Z,998.36
2018-02-03T07:08:43.021Z,998.32
2018-02-03T07:09:43.039Z,998.36
2018-02-03T07:10:43.050Z,998.4
2018-02-03T07:11:43.075Z,998.42
2018-02-03T07:12:43.088Z,998.42
2018-02-03T07:14:43.119Z,998.42
2018-02-03T07:15:43.134Z,998.37
2018-02-03T07:16:43.149Z,998.42
2018-02-03T07:17:43.159Z,998.41
2018-02-03T07:18:43.176Z,998.38
2018-02-03T07:19:43.184Z,998.44
2018-02-03T07:20:43.199Z,998.42
2018-02-03T07:21:43.221Z,998.38
2018-02-03T07:22:43.239Z,998.45
2018-02-03T07:23:43.252Z,998.45
2018-02-03T07:24:43.261Z,998.46
2018-02-03T07:25:43.276Z,998.47
2018-02-03T07:26:43.315Z,998.52
2018-02-03T07:27:43.309Z,998.52
2018-02-03T07:29:43.340Z,998.5
2018-02-03T07:30:43.355Z,998.54
2018-02-03T07:31:43.370Z,998.49
2018-02-03T07:32:43.387Z,998.5
2018-02-03T07:33:43.409Z,998.48
2018-02-03T07:34:43.419Z,998.49
2018-02-03T07:35:43.429Z,998.51
2018-02-03T07:36:43.449Z,998.5
2018-02-03T07:37:43.464Z,998.5
2018-02-03T07:38:43.482Z,998.52
2018-02-03T07:39:43.494Z,998.48
2018-02-03T07:40:43.507Z,998.48
2018-02-03T07:41:43.525Z,998.5
2018-02-03T07:42:43.546Z,998.54
2018-02-03T07:43:43.560Z,998.51
2018-02-03T07:44:43.620Z,998.52
2018-02-03T07:45:43.588Z,998.49
2018-02-03T07:46:43.603Z,998.53
2018-02-03T07:47:43.612Z,998.55
2018-02-03T07:48:43.626Z,998.57
2018-02-03T07:49:43.648Z,998.64
2018-02-03T07:50:43.661Z,998.61
2018-02-03T07:51:43.676Z,998.65
2018-02-03T07:52:43.693Z,998.66
2018-02-03T07:53:43.706Z,998.68
2018-02-03T07:54:43.728Z,998.67
2018-02-03T07:55:43.741Z,998.65
2018-02-03T07:56:43.753Z,998.67
2018-02-03T07:57:43.769Z,998.69
2018-02-03T07:58:43.785Z,998.66
2018-02-03T07:59:43.798Z,998.66
2018-02-03T08:01:43.833Z,998.66
2018-02-03T08:02:43.849Z,998.68
2018-02-03T08:03:43.863Z,998.67
2018-02-03T08:04:43.876Z,998.67
2018-02-03T08:05:43.894Z,998.68
2018-02-03T08:06:43.905Z,998.68
2018-02-03T08:07:43.922Z,998.72
2018-02-03T08:08:43.936Z,998.67
2018-02-03T08:09:43.954Z,998.7
2018-02-03T08:10:43.970Z,998.73
2018-02-03T08:11:43.982Z,998.7
2018-02-03T08:12:43.996Z,998.7
2018-02-03T08:13:44.019Z,998.73
2018-02-03T08:14:44.031Z,998.73
2018-02-03T08:15:44.045Z,998.73
2018-02-03T08:17:44.072Z,998.73
2018-02-03T08:18:44.094Z,998.7
2018-02-03T08:19:44.103Z,998.69
2018-02-03T08:20:44.123Z,998.69
2018-02-03T08:21:44.141Z,998.71
2018-02-03T08:22:44.194Z,998.73
2018-02-03T08:23:44.172Z,998.76
2018-02-03T08:24:44.198Z,998.74
2018-02-03T08:25:44.195Z,998.77
2018-02-03T08:26:44.221Z,998.76
2018-02-03T08:27:44.231Z,998.76
2018-02-03T08:28:44.247Z,998.7
2018-02-03T08:29:44.268Z,998.75
2018-02-03T08:30:44.275Z,998.7
2018-02-03T08:31:44.299Z,998.77
2018-02-03T08:33:44.327Z,998.75
2018-02-03T08:34:44.339Z,998.76
2018-02-03T08:35:44.357Z,998.74
2018-02-03T08:36:44.371Z,998.73
2018-02-03T08:37:44.453Z,998.73
2018-02-03T08:38:44.403Z,998.7
2018-02-03T08:39:44.417Z,998.72
2018-02-03T08:40:44.436Z,998.68
2018-02-03T08:41:44.452Z,998.72
2018-02-03T08:42:44.465Z,998.72
2018-02-03T08:43:44.475Z,998.7
2018-02-03T08:44:44.494Z,998.73
2018-02-03T08:45:44.612Z,998.7
2018-02-03T08:46:44.526Z,998.68
2018-02-03T08:47:44.544Z,998.69
2018-02-03T08:49:44.572Z,998.68
2018-02-03T08:50:44.586Z,998.67
2018-02-03T08:51:44.604Z,998.68
2018-02-03T08:52:44.631Z,998.66
2018-02-03T08:53:44.640Z,998.66
2018-02-03T08:54:44.649Z,998.67
2018-02-03T08:55:44.669Z,998.67
2018-02-03T08:56:44.684Z,998.69
2018-02-03T08:57:44.701Z,998.71
2018-02-03T08:58:44.716Z,998.72
2018-02-03T08:59:44.734Z,998.76
2018-02-03T09:00:44.748Z,998.75
2018-02-03T09:01:44.770Z,998.77
2018-02-03T09:02:44.783Z,998.77
2018-02-03T09:04:44.815Z,998.74
2018-02-03T09:05:44.830Z,998.8
2018-02-03T09:06:44.875Z,998.7
2018-02-03T09:07:44.862Z,998.73
2018-02-03T09:08:44.871Z,998.75
2018-02-03T09:09:44.894Z,998.74
2018-02-03T09:10:44.912Z,998.77
2018-02-03T09:11:44.926Z,998.82
2018-02-03T09:12:44.933Z,998.84
2018-02-03T09:13:44.951Z,998.81
2018-02-03T09:14:44.972Z,998.82
2018-02-03T09:15:44.984Z,998.78
2018-02-03T09:16:44.998Z,998.79
2018-02-03T09:17:45.012Z,998.8
2018-02-03T09:18:45.030Z,998.77
2018-02-03T09:19:45.049Z,998.83
2018-02-03T09:20:45.134Z,998.82
2018-02-03T09:21:45.081Z,998.82
2018-02-03T09:22:45.090Z,998.86
2018-02-03T09:23:45.107Z,998.89
2018-02-03T09:24:45.127Z,998.85
2018-02-03T09:25:45.195Z,998.89
2018-02-03T09:26:45.156Z,998.91
2018-02-03T09:27:45.168Z,998.88
2018-02-03T09:28:45.185Z,998.9
2018-02-03T09:29:45.204Z,998.94
2018-02-03T09:30:45.216Z,998.93
2018-02-03T09:31:45.236Z,998.94
2018-02-03T09:32:45.247Z,998.93
2018-02-03T09:33:45.260Z,998.94
2018-02-03T09:34:45.283Z,998.92
2018-02-03T09:36:45.307Z,998.94
2018-02-03T09:37:45.331Z,998.95
2018-02-03T09:38:45.344Z,998.95
2018-02-03T09:39:45.356Z,998.91
2018-02-03T09:40:45.378Z,998.94
2018-02-03T09:41:45.389Z,998.92
2018-02-03T09:42:45.406Z,998.94
2018-02-03T09:43:45.420Z,998.95
2018-02-03T09:44:45.437Z,998.95
2018-02-03T09:45:45.446Z,998.97
2018-02-03T09:46:45.464Z,998.91
2018-02-03T09:47:45.482Z,998.93
2018-02-03T09:48:45.500Z,998.94
2018-02-03T09:49:45.508Z,998.92
2018-02-03T09:50:45.524Z,998.92
2018-02-03T09:52:45.564Z,998.95
2018-02-03T09:53:45.570Z,998.93
2018-02-03T09:54:45.588Z,998.91
2018-02-03T09:55:45.602Z,998.97
2018-02-03T09:56:45.622Z,998.95
2018-02-03T09:57:45.637Z,998.99
2018-02-03T09:58:45.653Z,999.03
2018-02-03T09:59:45.670Z,998.98
2018-02-03T10:00:45.683Z,999.01
2018-02-03T10:01:45.754Z,998.99
2018-02-03T10:02:45.715Z,999.01
2018-02-03T10:03:45.731Z,999.01
2018-02-03T10:04:45.740Z,998.98
2018-02-03T10:05:45.756Z,998.97
2018-02-03T10:06:45.773Z,998.98
2018-02-03T10:08:45.806Z,999
2018-02-03T10:09:45.820Z,998.97
2018-02-03T10:10:45.835Z,998.98
2018-02-03T10:11:45.857Z,999
2018-02-03T10:12:45.867Z,999.03
2018-02-03T10:13:45.881Z,999.02
2018-02-03T10:14:45.900Z,999
2018-02-03T10:15:45.916Z,998.99
2018-02-03T10:16:45.933Z,999.04
2018-02-03T10:17:45.946Z,999.07
2018-02-03T10:18:45.961Z,999.05
2018-02-03T10:19:45.978Z,999.05
2018-02-03T10:20:45.990Z,999.11
2018-02-03T10:21:46.012Z,999.06
2018-02-03T10:22:46.031Z,999.08
2018-02-03T10:24:46.055Z,999.03
2018-02-03T10:25:46.070Z,999.05
2018-02-03T10:26:46.082Z,999.04
2018-02-03T10:27:46.099Z,999.05
2018-02-03T10:28:46.112Z,999.05
2018-02-03T10:29:46.133Z,999.01
2018-02-03T10:30:46.142Z,999
2018-02-03T10:31:46.160Z,999.02
2018-02-03T10:32:46.171Z,999.05
2018-02-03T10:33:46.182Z,999.01
2018-02-03T10:34:46.201Z,998.99
2018-02-03T10:35:46.227Z,998.99
2018-02-03T10:36:46.239Z,999.01
2018-02-03T10:37:46.243Z,999
2018-02-03T10:39:46.282Z,999
2018-02-03T10:40:46.295Z,998.98
2018-02-03T10:41:46.308Z,998.97
2018-02-03T10:42:46.323Z,998.98
2018-02-03T10:43:46.339Z,998.96
2018-02-03T10:44:46.349Z,998.98
2018-02-03T10:45:46.368Z,998.97
2018-02-03T10:46:46.387Z,999.01
2018-02-03T10:47:46.399Z,998.95
2018-02-03T10:48:46.416Z,998.97
2018-02-03T10:49:46.429Z,998.99
2018-02-03T10:50:46.443Z,999
2018-02-03T10:51:46.456Z,998.93
2018-02-03T10:52:46.479Z,998.99
2018-02-03T10:53:46.488Z,999.01
2018-02-03T10:54:46.510Z,998.97
2018-02-03T10:55:46.515Z,999
2018-02-03T10:56:46.532Z,999.01
2018-02-03T10:57:46.561Z,999
2018-02-03T10:58:46.566Z,999
2018-02-03T10:59:46.578Z,998.99
2018-02-03T11:00:46.593Z,999.02
2018-02-03T11:01:46.612Z,998.99
2018-02-03T11:02:46.626Z,998.99
2018-02-03T11:03:46.639Z,999.02
2018-02-03T11:04:46.655Z,999
2018-02-03T11:05:46.673Z,998.99
2018-02-03T11:06:46.684Z,998.99
2018-02-03T11:07:46.699Z,999
2018-02-03T11:08:46.715Z,999
2018-02-03T11:09:46.736Z,999.03
2018-02-03T11:11:46.769Z,999.02
2018-02-03T11:12:46.772Z,999.04
2018-02-03T11:13:46.790Z,999.05
2018-02-03T11:14:46.805Z,999.09
2018-02-03T11:15:46.821Z,999.13
2018-02-03T11:16:46.836Z,999.09
2018-02-03T11:17:46.848Z,999.07
2018-02-03T11:18:46.866Z,999.1
2018-02-03T11:19:46.877Z,999.13
2018-02-03T11:20:46.898Z,999.14
2018-02-03T11:21:46.913Z,999.15
2018-02-03T11:22:46.928Z,999.18
2018-02-03T11:23:46.941Z,999.18
2018-02-03T11:24:46.956Z,999.2
2018-02-03T11:25:46.969Z,999.17
2018-02-03T11:27:46.997Z,999.24
2018-02-03T11:28:47.015Z,999.26
2018-02-03T11:29:47.029Z,999.22
2018-02-03T11:30:47.052Z,999.25
2018-02-03T11:31:47.066Z,999.23
2018-02-03T11:32:47.182Z,999.25
2018-02-03T11:33:47.087Z,999.29
2018-02-03T11:34:47.104Z,999.25
2018-02-03T11:35:47.117Z,999.29
2018-02-03T11:36:47.142Z,999.26
2018-02-03T11:37:47.153Z,999.26
2018-02-03T11:38:47.170Z,999.28
2018-02-03T11:39:47.176Z,999.25
2018-02-03T11:40:47.194Z,999.28
2018-02-03T11:41:47.218Z,999.34
2018-02-03T11:43:47.237Z,999.32
2018-02-03T11:44:47.257Z,999.27
2018-02-03T11:45:47.275Z,999.24
2018-02-03T11:46:47.283Z,999.29
2018-02-03T11:47:47.301Z,999.29
2018-02-03T11:48:47.362Z,999.32
2018-02-03T11:49:47.329Z,999.32
2018-02-03T11:50:47.346Z,999.31
2018-02-03T11:51:47.357Z,999.33
2018-02-03T11:52:47.377Z,999.31
2018-02-03T11:53:47.387Z,999.32
2018-02-03T11:54:47.406Z,999.28
2018-02-03T11:55:47.419Z,999.3
2018-02-03T11:56:47.436Z,999.29
2018-02-03T11:57:47.450Z,999.32
2018-02-03T11:59:47.479Z,999.27
2018-02-03T12:00:47.491Z,999.28
2018-02-03T12:01:47.514Z,999.25
2018-02-03T12:02:47.519Z,999.23
2018-02-03T12:03:47.536Z,999.27
2018-02-03T12:04:47.558Z,999.24
2018-02-03T12:05:47.570Z,999.26
2018-02-03T12:06:47.584Z,999.32
2018-02-03T12:07:47.597Z,999.28
2018-02-03T12:08:47.607Z,999.29
2018-02-03T12:09:47.623Z,999.28
2018-02-03T12:10:47.644Z,999.29
2018-02-03T12:11:47.658Z,999.26
2018-02-03T12:12:47.667Z,999.27
2018-02-03T12:14:47.709Z,999.23
2018-02-03T12:15:47.762Z,999.21
2018-02-03T12:16:47.732Z,999.22
2018-02-03T12:17:47.747Z,999.24
2018-02-03T12:18:47.759Z,999.21
2018-02-03T12:19:47.770Z,999.23
2018-02-03T12:20:47.792Z,999.21
2018-02-03T12:21:47.804Z,999.17
2018-02-03T12:22:47.816Z,999.21
2018-02-03T12:23:47.833Z,999.21
2018-02-03T12:24:47.851Z,999.16
2018-02-03T12:25:47.866Z,999.17
2018-02-03T12:26:47.880Z,999.2
2018-02-03T12:27:47.897Z,999.2
2018-02-03T12:28:47.903Z,999.2
2018-02-03T12:29:47.921Z,999.18
2018-02-03T12:30:47.937Z,999.18
2018-02-03T12:31:47.948Z,999.22
2018-02-03T12:32:47.971Z,999.24
2018-02-03T12:33:47.986Z,999.24
2018-02-03T12:34:48.001Z,999.27
2018-02-03T12:35:48.012Z,999.27
2018-02-03T12:36:48.030Z,999.31
2018-02-03T12:37:48.040Z,999.34
2018-02-03T12:38:48.051Z,999.3
2018-02-03T12:39:48.072Z,999.35
2018-02-03T12:40:48.089Z,999.29
2018-02-03T12:41:48.101Z,999.32
2018-02-03T12:42:48.114Z,999.38
2018-02-03T12:43:48.129Z,999.37
2018-02-03T12:44:48.171Z,999.38
2018-02-03T12:46:48.171Z,999.37
2018-02-03T12:47:48.184Z,999.34
2018-02-03T12:48:48.269Z,999.42
2018-02-03T12:49:48.219Z,999.42
2018-02-03T12:50:48.228Z,999.32
2018-02-03T12:51:48.249Z,999.38
2018-02-03T12:52:48.265Z,999.34
2018-02-03T12:53:48.278Z,999.31
2018-02-03T12:54:48.287Z,999.32
2018-02-03T12:55:48.309Z,999.37
2018-02-03T12:56:48.320Z,999.38
2018-02-03T12:57:48.337Z,999.35
2018-02-03T12:58:48.350Z,999.34
2018-02-03T12:59:48.366Z,999.35
2018-02-03T13:00:48.385Z,999.39
2018-02-03T13:02:48.415Z,999.38
2018-02-03T13:03:48.419Z,999.35
2018-02-03T13:04:48.437Z,999.38
2018-02-03T13:05:48.455Z,999.39
2018-02-03T13:06:48.466Z,999.33
2018-02-03T13:07:48.481Z,999.4
2018-02-03T13:08:48.495Z,999.39
2018-02-03T13:09:48.537Z,999.35
2018-02-03T13:10:48.525Z,999.39
2018-02-03T13:11:48.541Z,999.43
2018-02-03T13:12:48.555Z,999.38
2018-02-03T13:13:48.568Z,999.4
2018-02-03T13:14:48.584Z,999.38